Time;durP1;ratioP1;P1;durP2;ratioP2;P2;SDS_P1;SDS_P2;PMS_P1;PMS_P2;Temp;Humidity;BMP_temperature;BMP_pressure;BME280_temperature;BME280_humidity;BME280_pressure;Samples;Min_cycle;Max_cycle;Signal;HPM_P1;HPM_P2
2023/06/06 00:04:00;;;;;;;5.90;2.00;;;;;;;20.74;nan;100904.13;31611489;28;20420;-78
2023/06/06 00:19:03;;;;;;;11.90;5.90;;;;;;;20.68;nan;100914.28;31576993;28;20062;-78
2023/06/06 00:34:05;;;;;;;4.27;2.30;;;;;;;20.60;nan;100921.34;31603986;28;20051;-77
2023/06/06 00:49:13;;;;;;;7.50;2.70;;;;;;;20.60;nan;100926.88;31588841;28;20051;-78
2023/06/06 01:04:15;;;;;;;3.43;2.20;;;;;;;20.29;nan;100920.88;31569104;28;20412;-77
2023/06/06 01:19:20;;;;;;;2.37;1.53;;;;;;;20.49;nan;100945.94;31607055;28;20056;-77
2023/06/06 01:34:48;;;;;;;4.17;2.80;;;;;;;20.52;nan;100950.53;31584541;28;20051;-78
2023/06/06 01:49:51;;;;;;;7.13;4.40;;;;;;;20.15;nan;100962.88;31594842;28;20056;-78
2023/06/06 02:04:53;;;;;;;6.97;3.00;;;;;;;20.03;nan;100964.59;31616282;28;20044;-78
2023/06/06 02:19:55;;;;;;;4.97;2.80;;;;;;;20.09;nan;100971.75;31591313;28;20067;-79
2023/06/06 02:34:59;;;;;;;10.63;5.17;;;;;;;20.50;nan;100982.56;31618553;28;20059;-78
2023/06/06 02:50:02;;;;;;;4.07;2.20;;;;;;;20.67;nan;100989.22;31598268;28;20417;-78
2023/06/06 03:05:04;;;;;;;4.87;2.73;;;;;;;21.08;nan;100984.88;31612981;28;20052;-80
2023/06/06 03:20:07;;;;;;;5.27;2.50;;;;;;;21.62;nan;100978.22;31603628;28;20875;-79
2023/06/06 03:35:09;;;;;;;7.63;2.97;;;;;;;21.83;nan;100992.91;31610355;28;20077;-78
2023/06/06 03:50:12;;;;;;;5.65;2.50;;;;;;;22.44;nan;101001.53;31610497;28;20055;-80
2023/06/06 04:05:15;;;;;;;5.63;2.28;;;;;;;22.99;nan;101000.88;31591221;28;20424;-79
2023/06/06 04:20:17;;;;;;;11.43;2.60;;;;;;;23.39;nan;100987.03;31597527;28;20052;-79
2023/06/06 04:35:19;;;;;;;4.50;2.00;;;;;;;23.79;nan;100979.94;31609362;28;20048;-81
2023/06/06 04:50:23;;;;;;;5.88;2.80;;;;;;;24.65;nan;100992.78;31605225;28;20059;-80
2023/06/06 05:05:25;;;;;;;7.80;2.03;;;;;;;25.45;nan;100998.28;31614415;28;20108;-81
2023/06/06 05:20:27;;;;;;;3.65;2.08;;;;;;;26.12;nan;101010.34;31593939;28;20056;-79
2023/06/06 05:35:31;;;;;;;3.03;1.85;;;;;;;26.90;nan;101008.81;31590861;28;20126;-79
2023/06/06 05:50:33;;;;;;;4.63;1.50;;;;;;;27.32;nan;101002.84;31584460;28;20615;-80
2023/06/06 06:05:36;;;;;;;7.10;1.33;;;;;;;28.03;nan;100997.41;31581573;28;20409;-81
2023/06/06 06:20:38;;;;;;;4.30;1.60;;;;;;;28.02;nan;100995.88;31586598;28;20501;-78
2023/06/06 06:35:42;;;;;;;2.70;1.47;;;;;;;28.48;nan;100983.09;31629532;28;20059;-81
2023/06/06 06:50:45;;;;;;;3.47;1.73;;;;;;;28.73;nan;100993.00;31618711;28;20060;-78
2023/06/06 07:05:47;;;;;;;1.85;1.02;;;;;;;29.28;nan;100990.88;31625641;28;20059;-78
2023/06/06 07:20:49;;;;;;;1.60;0.90;;;;;;;29.76;nan;100998.34;31622082;28;20055;-78
2023/06/06 07:35:51;;;;;;;2.25;1.40;;;;;;;30.32;nan;100996.75;31592066;28;20059;-78
2023/06/06 07:50:54;;;;;;;;;;;;;;;31.10;nan;100975.69;31626507;28;20093;-78
2023/06/06 08:05:56;;;;;;;5.13;1.47;;;;;;;30.69;nan;100982.63;31594391;28;19928;-78
2023/06/06 08:20:58;;;;;;;1.90;1.10;;;;;;;31.23;nan;100967.28;31606712;28;20359;-79
2023/06/06 08:36:01;;;;;;;3.40;1.20;;;;;;;31.77;nan;100963.03;31626420;28;20125;-80
2023/06/06 08:51:09;;;;;;;3.28;1.10;;;;;;;32.55;nan;100949.84;31615776;28;20057;-80
2023/06/06 09:06:12;;;;;;;2.10;0.88;;;;;;;32.58;nan;100942.38;31632073;28;20040;-79
2023/06/06 09:21:14;;;;;;;2.47;1.48;;;;;;;32.62;nan;100931.50;31577504;28;20052;-88
2023/06/06 09:36:21;;;;;;;3.03;1.88;;;;;;;33.43;nan;100923.28;31626066;28;20564;-78
2023/06/06 09:51:24;;;;;;;6.68;2.10;;;;;;;34.08;nan;100923.72;31565187;28;20463;-84
2023/06/06 10:06:33;;;;;;;2.60;1.10;;;;;;;34.81;nan;100916.28;31639134;28;20051;-85
2023/06/06 10:21:37;;;;;;;4.23;1.50;;;;;;;35.15;nan;100912.94;31645208;28;20494;-83
2023/06/06 10:36:43;;;;;;;2.22;1.30;;;;;;;35.65;nan;100903.81;31625353;28;20052;-88
2023/06/06 10:51:47;;;;;;;2.28;1.20;;;;;;;35.64;nan;100902.31;31602531;28;20055;-83
2023/06/06 11:06:53;;;;;;;8.02;3.92;;;;;;;35.34;nan;100906.84;31635249;28;20059;-83
2023/06/06 11:22:00;;;;;;;1.88;1.48;;;;;;;33.82;nan;100895.94;31643086;28;20051;-84
2023/06/06 11:37:03;;;;;;;4.03;1.80;;;;;;;32.25;nan;100899.81;31615093;28;20524;-83
2023/06/06 11:52:07;;;;;;;3.00;1.58;;;;;;;31.75;nan;100892.66;31619669;28;20135;-81
2023/06/06 12:07:09;;;;;;;2.38;1.17;;;;;;;31.01;nan;100883.59;31613689;28;20459;-88
2023/06/06 12:22:13;;;;;;;3.65;1.60;;;;;;;30.83;nan;100874.06;31398429;22;20060;-84
2023/06/06 12:37:18;;;;;;;2.95;1.40;;;;;;;30.79;nan;100851.97;31273309;28;20053;-83
2023/06/06 12:52:20;;;;;;;5.45;2.88;;;;;;;30.38;nan;100857.38;31229972;28;20061;-86
2023/06/06 13:07:23;;;;;;;;;;;;;;;30.60;nan;100845.00;31218556;28;20425;-85
2023/06/06 13:22:28;;;;;;;5.43;1.60;;;;;;;30.11;nan;100834.97;31228953;28;19921;-85
2023/06/06 13:37:31;;;;;;;;;;;;;;;30.57;nan;100810.41;31232657;28;20130;-86
2023/06/06 13:52:34;;;;;;;3.53;2.03;;;;;;;29.92;nan;100800.69;31221335;28;19920;-88
2023/06/06 14:07:38;;;;;;;12.98;6.65;;;;;;;29.54;nan;100788.88;31203425;28;20053;-83
2023/06/06 14:22:40;;;;;;;12.15;4.95;;;;;;;29.64;nan;100786.44;31185635;28;20091;-83
2023/06/06 14:37:42;;;;;;;;;;;;;;;29.74;nan;100773.56;31188167;28;20054;-86
2023/06/06 14:52:44;;;;;;;6.18;1.88;;;;;;;29.48;nan;100774.25;31243507;28;19920;-85
2023/06/06 15:07:47;;;;;;;2.87;1.77;;;;;;;29.41;nan;100770.03;31216943;28;20053;-84
2023/06/06 15:22:49;;;;;;;5.03;1.93;;;;;;;29.35;nan;100769.34;31252691;28;20415;-85
2023/06/06 15:37:51;;;;;;;8.83;2.40;;;;;;;29.27;nan;100762.13;31262310;28;20057;-84
2023/06/06 15:52:53;;;;;;;9.77;3.50;;;;;;;29.03;nan;100763.00;31254173;28;20049;-81
2023/06/06 16:07:55;;;;;;;26.47;17.57;;;;;;;28.98;nan;100756.22;31298218;28;20056;-85
2023/06/06 16:22:58;;;;;;;9.20;3.07;;;;;;;28.75;nan;100744.59;31253131;28;20081;-84
2023/06/06 16:38:01;;;;;;;8.85;4.55;;;;;;;28.60;nan;100744.28;31253921;28;20061;-84
2023/06/06 16:53:03;;;;;;;7.33;2.00;;;;;;;28.58;nan;100752.44;31240920;28;20548;-84
2023/06/06 17:08:06;;;;;;;4.33;2.47;;;;;;;28.10;nan;100753.28;31215839;28;20054;-84
2023/06/06 17:23:08;;;;;;;4.07;1.80;;;;;;;27.99;nan;100751.34;31226128;28;20049;-85
2023/06/06 17:38:10;;;;;;;7.97;2.30;;;;;;;27.68;nan;100757.50;31228771;28;20068;-84
2023/06/06 17:53:12;;;;;;;6.03;2.00;;;;;;;27.54;nan;100764.97;31226571;28;20418;-84
2023/06/06 18:08:15;;;;;;;4.23;2.23;;;;;;;27.38;nan;100765.88;31242970;28;20064;-84
2023/06/06 18:23:19;;;;;;;6.13;2.00;;;;;;;27.31;nan;100767.19;31239660;28;20112;-80
2023/06/06 18:38:21;;;;;;;5.88;2.00;;;;;;;27.25;nan;100782.44;31239951;28;20068;-81
2023/06/06 18:53:23;;;;;;;4.38;2.45;;;;;;;27.03;nan;100778.53;31253629;28;20053;-83
2023/06/06 19:08:26;;;;;;;2.50;1.57;;;;;;;26.93;nan;100791.22;31208390;28;20057;-80
2023/06/06 19:23:34;;;;;;;9.50;2.70;;;;;;;26.68;nan;100795.94;31254563;28;20057;-81
2023/06/06 19:38:37;;;;;;;9.40;3.92;;;;;;;25.62;nan;100806.50;31239713;28;20408;-80
2023/06/06 19:53:39;;;;;;;12.48;6.65;;;;;;;25.75;nan;100815.13;31229825;28;20056;-83
2023/06/06 20:08:42;;;;;;;44.47;26.55;;;;;;;25.77;nan;100835.59;31242328;28;20073;-82
2023/06/06 20:23:44;;;;;;;10.98;6.15;;;;;;;25.86;nan;100842.94;31237175;28;20053;-82
2023/06/06 20:38:50;;;;;;;7.03;4.00;;;;;;;25.78;nan;100842.66;31192803;28;20747;-81
2023/06/06 20:53:52;;;;;;;4.35;2.65;;;;;;;25.69;nan;100842.19;31220854;28;20049;-79
2023/06/06 21:08:54;;;;;;;7.15;4.18;;;;;;;25.59;nan;100858.31;31237155;28;20057;-82
2023/06/06 21:23:56;;;;;;;4.75;2.47;;;;;;;25.49;nan;100863.38;31242902;28;20057;-79
2023/06/06 21:38:58;;;;;;;6.40;2.53;;;;;;;25.38;nan;100871.69;31190768;28;20049;-81
2023/06/06 21:54:02;;;;;;;7.75;4.20;;;;;;;25.35;nan;100864.34;31249777;28;20053;-81
2023/06/06 22:09:04;;;;;;;5.72;2.42;;;;;;;25.21;nan;100862.56;31246271;28;20505;-79
2023/06/06 22:24:06;;;;;;;4.75;3.65;;;;;;;25.15;nan;100865.31;31240058;28;20419;-80
2023/06/06 22:39:09;;;;;;;7.50;3.70;;;;;;;24.46;nan;100864.00;31255024;28;20060;-81
2023/06/06 22:54:11;;;;;;;7.72;4.00;;;;;;;24.52;nan;100837.03;31236984;28;20422;-80
2023/06/06 23:09:13;;;;;;;6.50;3.53;;;;;;;24.52;nan;100841.84;31269945;28;20103;-80
2023/06/06 23:24:15;;;;;;;6.00;3.28;;;;;;;24.28;nan;100842.22;31256595;28;20111;-80
2023/06/06 23:39:17;;;;;;;7.70;3.50;;;;;;;24.03;nan;100841.00;31275127;28;20112;-80
2023/06/06 23:54:20;;;;;;;10.82;3.65;;;;;;;23.91;nan;100842.94;31248119;28;20115;-81
